KJXN/JXN METAR and TAF weather

Enter ICAO airport designator
Station Type Date Time Source
KJXN METAR 2019/10/15 17:56 UTC NOAA

KJXN 151756Z 16006KT 10SM FEW110 16/04 A2990 RMK AO2 SLP129 T01610039 10167 20028 56032


Station Type Date Time Source
KJXN Decoded METAR 2019/10/15 17:56 UTC NOAA

JACKSON COUNTY-REYNOLDS, MI, United States (KJXN) 42-16N 084-28W
Oct 15, 2019 - 01:56 PM EDT / 2019.10.15 1756 UTC
Wind: from the SSE (160 degrees) at 7 MPH (6 KT):0
Visibility: 10 mile(s):0
Sky conditions: mostly clear
Temperature: 61.0 F (16.1 C)
Dew Point: 39.0 F (3.9 C)
Relative Humidity: 44%
Pressure (altimeter): 29.9 in. Hg (1012 hPa)
Pressure tendency: 0.09 inches (3.2 hPa) lower than three hours ago
ob: KJXN 151756Z 16006KT 10SM FEW110 16/04 A2990 RMK AO2 SLP129 T01610039 10167 20028 56032
cycle: 18

Station Type Date Time Source
KJXN TAF 2019/10/15 18:36 UTC NOAA

TAF KJXN 151735Z 1518/1618 17012G20KT P6SM BKN100
FM160000 19009KT 6SM -SHRA BR BKN025
FM160600 28012G22KT P6SM BKN035
FM161100 27011G25KT P6SM BKN018

Example: see airport list